首页
METAR-TAF:

METAR-TAF

机场 :

蓋恩斯維爾, 佛罗里达州, 美国

纬度: 29-41-31N, 经度: 082-16-32W, 海拔: 46米

当前天气观测

该预报发布于1小时和5分钟前的18:53 UTC
风速8节,风向东转东南
温度 28°C
湿度 48%
气压 1018 hPa
能見度: 16.1公里
少量云层高于6000英尺

METAR: KGNV 071853Z 12008KT 10SM FEW060 28/16 A3006 RMK AO2 SLP178 T02780156

时间: 15:58 (19:58 UTC)

预报

该预报发布于2小时和38分钟前的17:20 UTC
预报有效从07日的 18点(UTC)到 08日的 18点(UTC)
风速6节,风向西南
能見度: 10公里
散云层高于5000英尺
多云层高于15000英尺
多云层高于25000英尺
从 08日的 0900点(UTC)
风速4节,风向西转西南
能見度: 8.0公里
多云层高于600英尺
阴天层高于1500英尺
轻雾
从 08日的 1400点(UTC)
风速10节,风向西
能見度: 10公里
多云层高于3500英尺

TAF: KGNV 071720Z 0718/0818 23006KT P6SM SCT050 BKN150 BKN250 FM080900 25004KT 5SM BR BKN006 OVC015 FM081400 26010KT P6SM BKN035

超过4000个机场的气象观测和天气预报(METAR&TAF报告)。

可查询的气象台以黄色和红色小点在地图上表示。

将鼠标移到小点上方,可查看气象台名称。

然后点击查看天气观测和预报。

如需切换地图:点击带黑十字的绿色按钮放大地图;点击带横线的绿色按钮缩小地图;或者点击绿色箭头查看邻近地区的地图。


METAR-TAF: